sensor_id;sensor_type;location;lat;lon;timestamp;temperature;humidity
8537;DHT22;4306;50.210;10.628;2023-04-28T00:01:18;9.60;87.10
8537;DHT22;4306;50.210;10.628;2023-04-28T00:03:45;9.60;87.40
8537;DHT22;4306;50.210;10.628;2023-04-28T00:06:14;9.60;87.40
8537;DHT22;4306;50.210;10.628;2023-04-28T00:08:41;9.60;88.10
8537;DHT22;4306;50.210;10.628;2023-04-28T00:11:08;9.50;87.60
8537;DHT22;4306;50.210;10.628;2023-04-28T00:13:36;9.50;88.10
8537;DHT22;4306;50.210;10.628;2023-04-28T00:16:03;9.50;87.90
8537;DHT22;4306;50.210;10.628;2023-04-28T00:18:30;9.50;87.70
8537;DHT22;4306;50.210;10.628;2023-04-28T00:20:57;9.60;88.10
8537;DHT22;4306;50.210;10.628;2023-04-28T00:23:25;9.50;88.50
8537;DHT22;4306;50.210;10.628;2023-04-28T00:25:53;9.50;89.20
8537;DHT22;4306;50.210;10.628;2023-04-28T00:28:21;9.30;89.90
8537;DHT22;4306;50.210;10.628;2023-04-28T00:30:48;9.20;89.70
8537;DHT22;4306;50.210;10.628;2023-04-28T00:33:15;9.30;89.00
8537;DHT22;4306;50.210;10.628;2023-04-28T00:35:41;9.30;90.10
8537;DHT22;4306;50.210;10.628;2023-04-28T00:38:08;9.30;89.90
8537;DHT22;4306;50.210;10.628;2023-04-28T00:40:38;9.30;89.60
8537;DHT22;4306;50.210;10.628;2023-04-28T00:43:05;9.10;90.10
8537;DHT22;4306;50.210;10.628;2023-04-28T00:45:32;9.10;90.30
8537;DHT22;4306;50.210;10.628;2023-04-28T00:47:59;9.00;90.50
8537;DHT22;4306;50.210;10.628;2023-04-28T00:50:26;9.00;90.50
8537;DHT22;4306;50.210;10.628;2023-04-28T00:52:53;8.90;90.60
8537;DHT22;4306;50.210;10.628;2023-04-28T00:55:21;8.80;90.70
8537;DHT22;4306;50.210;10.628;2023-04-28T00:57:50;8.90;90.60
8537;DHT22;4306;50.210;10.628;2023-04-28T01:00:17;8.70;91.10
8537;DHT22;4306;50.210;10.628;2023-04-28T01:02:44;8.60;91.30
8537;DHT22;4306;50.210;10.628;2023-04-28T01:05:11;8.70;91.00
8537;DHT22;4306;50.210;10.628;2023-04-28T01:07:39;8.70;91.10
8537;DHT22;4306;50.210;10.628;2023-04-28T01:10:07;8.60;91.50
8537;DHT22;4306;50.210;10.628;2023-04-28T01:12:34;8.60;91.50
8537;DHT22;4306;50.210;10.628;2023-04-28T01:15:03;8.60;91.60
8537;DHT22;4306;50.210;10.628;2023-04-28T01:17:30;8.60;91.60
8537;DHT22;4306;50.210;10.628;2023-04-28T01:19:57;8.60;91.20
8537;DHT22;4306;50.210;10.628;2023-04-28T01:22:23;8.70;91.20
8537;DHT22;4306;50.210;10.628;2023-04-28T01:24:52;8.70;91.50
8537;DHT22;4306;50.210;10.628;2023-04-28T01:27:18;8.60;92.10
8537;DHT22;4306;50.210;10.628;2023-04-28T01:29:47;8.50;92.60
8537;DHT22;4306;50.210;10.628;2023-04-28T01:32:14;8.50;92.30
8537;DHT22;4306;50.210;10.628;2023-04-28T01:34:41;8.50;92.30
8537;DHT22;4306;50.210;10.628;2023-04-28T01:37:08;8.60;91.80
8537;DHT22;4306;50.210;10.628;2023-04-28T01:39:35;8.70;91.50
8537;DHT22;4306;50.210;10.628;2023-04-28T01:42:03;8.60;92.00
8537;DHT22;4306;50.210;10.628;2023-04-28T01:44:30;8.70;91.90
8537;DHT22;4306;50.210;10.628;2023-04-28T01:46:57;8.60;92.50
8537;DHT22;4306;50.210;10.628;2023-04-28T01:49:24;8.50;92.60
8537;DHT22;4306;50.210;10.628;2023-04-28T01:51:51;8.50;92.20
8537;DHT22;4306;50.210;10.628;2023-04-28T01:54:18;8.60;91.90
8537;DHT22;4306;50.210;10.628;2023-04-28T01:56:45;8.50;92.40
8537;DHT22;4306;50.210;10.628;2023-04-28T01:59:13;8.50;92.50
8537;DHT22;4306;50.210;10.628;2023-04-28T02:01:40;8.50;92.60
8537;DHT22;4306;50.210;10.628;2023-04-28T02:04:07;8.40;93.10
8537;DHT22;4306;50.210;10.628;2023-04-28T02:06:34;8.40;93.00
8537;DHT22;4306;50.210;10.628;2023-04-28T02:09:01;8.40;92.50
8537;DHT22;4306;50.210;10.628;2023-04-28T02:11:28;8.50;92.50
8537;DHT22;4306;50.210;10.628;2023-04-28T02:13:54;8.50;92.50
8537;DHT22;4306;50.210;10.628;2023-04-28T02:16:23;8.40;93.90
8537;DHT22;4306;50.210;10.628;2023-04-28T02:18:50;8.20;94.30
8537;DHT22;4306;50.210;10.628;2023-04-28T02:21:16;8.20;93.70
8537;DHT22;4306;50.210;10.628;2023-04-28T02:23:43;8.40;93.30
8537;DHT22;4306;50.210;10.628;2023-04-28T02:26:10;8.50;93.30
8537;DHT22;4306;50.210;10.628;2023-04-28T02:28:37;8.40;93.60
8537;DHT22;4306;50.210;10.628;2023-04-28T02:31:05;8.50;93.60
8537;DHT22;4306;50.210;10.628;2023-04-28T02:33:34;8.50;93.80
8537;DHT22;4306;50.210;10.628;2023-04-28T02:36:01;8.50;93.90
8537;DHT22;4306;50.210;10.628;2023-04-28T02:38:28;8.50;93.60
8537;DHT22;4306;50.210;10.628;2023-04-28T02:40:58;8.50;93.50
8537;DHT22;4306;50.210;10.628;2023-04-28T02:43:26;8.50;93.60
8537;DHT22;4306;50.210;10.628;2023-04-28T02:45:53;8.60;93.60
8537;DHT22;4306;50.210;10.628;2023-04-28T02:48:20;8.50;93.60
8537;DHT22;4306;50.210;10.628;2023-04-28T02:50:48;8.40;93.60
8537;DHT22;4306;50.210;10.628;2023-04-28T02:53:15;8.40;94.10
8537;DHT22;4306;50.210;10.628;2023-04-28T02:55:42;8.40;94.50
8537;DHT22;4306;50.210;10.628;2023-04-28T02:58:09;8.30;95.00
8537;DHT22;4306;50.210;10.628;2023-04-28T03:00:36;8.30;94.80
8537;DHT22;4306;50.210;10.628;2023-04-28T03:03:03;8.40;94.60
8537;DHT22;4306;50.210;10.628;2023-04-28T03:05:29;8.50;94.30
8537;DHT22;4306;50.210;10.628;2023-04-28T03:07:58;8.40;95.20
8537;DHT22;4306;50.210;10.628;2023-04-28T03:10:25;8.40;95.30
8537;DHT22;4306;50.210;10.628;2023-04-28T03:12:52;8.40;95.60
8537;DHT22;4306;50.210;10.628;2023-04-28T03:15:18;8.40;95.90
8537;DHT22;4306;50.210;10.628;2023-04-28T03:17:45;8.30;95.80
8537;DHT22;4306;50.210;10.628;2023-04-28T03:20:12;8.20;96.10
8537;DHT22;4306;50.210;10.628;2023-04-28T03:22:39;8.20;96.10
8537;DHT22;4306;50.210;10.628;2023-04-28T03:25:08;8.10;96.20
8537;DHT22;4306;50.210;10.628;2023-04-28T03:27:35;8.20;95.90
8537;DHT22;4306;50.210;10.628;2023-04-28T03:30:03;8.20;95.90
8537;DHT22;4306;50.210;10.628;2023-04-28T03:32:29;8.30;95.80
8537;DHT22;4306;50.210;10.628;2023-04-28T03:34:56;8.30;96.00
8537;DHT22;4306;50.210;10.628;2023-04-28T03:37:23;8.30;95.90
8537;DHT22;4306;50.210;10.628;2023-04-28T03:39:50;8.30;95.90
8537;DHT22;4306;50.210;10.628;2023-04-28T03:42:19;8.30;95.90
8537;DHT22;4306;50.210;10.628;2023-04-28T03:44:45;8.30;95.80
8537;DHT22;4306;50.210;10.628;2023-04-28T03:47:12;8.30;96.50
8537;DHT22;4306;50.210;10.628;2023-04-28T03:49:39;8.30;96.40
8537;DHT22;4306;50.210;10.628;2023-04-28T03:52:06;8.30;96.70
8537;DHT22;4306;50.210;10.628;2023-04-28T03:54:33;8.30;96.60
8537;DHT22;4306;50.210;10.628;2023-04-28T03:57:00;8.40;96.70
8537;DHT22;4306;50.210;10.628;2023-04-28T03:59:28;8.40;96.10
8537;DHT22;4306;50.210;10.628;2023-04-28T04:01:55;8.40;96.20
8537;DHT22;4306;50.210;10.628;2023-04-28T04:04:22;8.40;96.20
8537;DHT22;4306;50.210;10.628;2023-04-28T04:06:49;8.40;96.40
8537;DHT22;4306;50.210;10.628;2023-04-28T04:09:17;8.30;96.50
8537;DHT22;4306;50.210;10.628;2023-04-28T04:11:44;8.40;96.60
8537;DHT22;4306;50.210;10.628;2023-04-28T04:14:11;8.40;96.90
8537;DHT22;4306;50.210;10.628;2023-04-28T04:16:39;8.40;96.70
8537;DHT22;4306;50.210;10.628;2023-04-28T04:19:06;8.40;97.20
8537;DHT22;4306;50.210;10.628;2023-04-28T04:21:33;8.40;97.10
8537;DHT22;4306;50.210;10.628;2023-04-28T04:24:00;8.40;97.10
8537;DHT22;4306;50.210;10.628;2023-04-28T04:26:27;8.50;97.20
8537;DHT22;4306;50.210;10.628;2023-04-28T04:28:53;8.40;97.40
8537;DHT22;4306;50.210;10.628;2023-04-28T04:31:20;8.50;97.30
8537;DHT22;4306;50.210;10.628;2023-04-28T04:33:48;8.40;97.90
8537;DHT22;4306;50.210;10.628;2023-04-28T04:36:16;8.40;98.10
8537;DHT22;4306;50.210;10.628;2023-04-28T04:38:43;8.50;98.20
8537;DHT22;4306;50.210;10.628;2023-04-28T04:41:09;8.50;98.30
8537;DHT22;4306;50.210;10.628;2023-04-28T04:43:36;8.50;98.90
8537;DHT22;4306;50.210;10.628;2023-04-28T04:46:03;8.60;98.20
8537;DHT22;4306;50.210;10.628;2023-04-28T04:48:31;8.60;99.20
8537;DHT22;4306;50.210;10.628;2023-04-28T04:50:59;8.60;99.00
8537;DHT22;4306;50.210;10.628;2023-04-28T04:53:26;8.60;99.90
8537;DHT22;4306;50.210;10.628;2023-04-28T04:55:53;8.60;99.80
8537;DHT22;4306;50.210;10.628;2023-04-28T04:58:20;8.50;99.90
8537;DHT22;4306;50.210;10.628;2023-04-28T05:00:47;8.50;99.90
8537;DHT22;4306;50.210;10.628;2023-04-28T05:03:14;8.50;99.90
8537;DHT22;4306;50.210;10.628;2023-04-28T05:05:41;8.50;99.90
8537;DHT22;4306;50.210;10.628;2023-04-28T05:08:11;8.60;99.90
8537;DHT22;4306;50.210;10.628;2023-04-28T05:10:37;8.60;99.90
8537;DHT22;4306;50.210;10.628;2023-04-28T05:13:04;8.70;99.90
8537;DHT22;4306;50.210;10.628;2023-04-28T05:15:32;8.80;99.90
8537;DHT22;4306;50.210;10.628;2023-04-28T05:17:59;8.80;99.90
8537;DHT22;4306;50.210;10.628;2023-04-28T05:20:31;8.90;99.90
8537;DHT22;4306;50.210;10.628;2023-04-28T05:22:57;8.80;99.90
8537;DHT22;4306;50.210;10.628;2023-04-28T05:25:26;8.80;99.90
8537;DHT22;4306;50.210;10.628;2023-04-28T05:27:52;8.80;99.90
8537;DHT22;4306;50.210;10.628;2023-04-28T05:30:19;8.90;99.90
8537;DHT22;4306;50.210;10.628;2023-04-28T05:32:46;8.90;99.90
8537;DHT22;4306;50.210;10.628;2023-04-28T05:35:13;9.00;99.90
8537;DHT22;4306;50.210;10.628;2023-04-28T05:37:40;9.00;99.90
8537;DHT22;4306;50.210;10.628;2023-04-28T05:40:09;9.00;99.90
8537;DHT22;4306;50.210;10.628;2023-04-28T05:42:38;8.90;99.90
8537;DHT22;4306;50.210;10.628;2023-04-28T05:45:06;8.90;99.90
8537;DHT22;4306;50.210;10.628;2023-04-28T05:47:33;9.00;99.90
8537;DHT22;4306;50.210;10.628;2023-04-28T05:50:00;9.10;99.90
8537;DHT22;4306;50.210;10.628;2023-04-28T05:52:27;9.10;99.90
8537;DHT22;4306;50.210;10.628;2023-04-28T05:54:54;9.10;99.90
8537;DHT22;4306;50.210;10.628;2023-04-28T05:57:21;9.00;99.90
8537;DHT22;4306;50.210;10.628;2023-04-28T05:59:49;9.10;99.90
8537;DHT22;4306;50.210;10.628;2023-04-28T06:02:16;9.10;99.90
8537;DHT22;4306;50.210;10.628;2023-04-28T06:04:43;9.10;99.90
8537;DHT22;4306;50.210;10.628;2023-04-28T06:07:10;9.10;99.90
8537;DHT22;4306;50.210;10.628;2023-04-28T06:09:36;9.10;99.90
8537;DHT22;4306;50.210;10.628;2023-04-28T06:12:04;9.10;99.90
8537;DHT22;4306;50.210;10.628;2023-04-28T06:14:31;9.10;99.90
8537;DHT22;4306;50.210;10.628;2023-04-28T06:16:59;9.20;99.90
8537;DHT22;4306;50.210;10.628;2023-04-28T06:19:26;9.30;99.90
8537;DHT22;4306;50.210;10.628;2023-04-28T06:21:53;9.20;99.90
8537;DHT22;4306;50.210;10.628;2023-04-28T06:24:20;9.10;99.90
8537;DHT22;4306;50.210;10.628;2023-04-28T06:26:47;9.20;99.90
8537;DHT22;4306;50.210;10.628;2023-04-28T06:29:14;9.30;99.90
8537;DHT22;4306;50.210;10.628;2023-04-28T06:31:40;9.40;99.90
8537;DHT22;4306;50.210;10.628;2023-04-28T06:34:09;9.60;99.90
8537;DHT22;4306;50.210;10.628;2023-04-28T06:36:35;9.60;99.90
8537;DHT22;4306;50.210;10.628;2023-04-28T06:39:04;9.70;99.90
8537;DHT22;4306;50.210;10.628;2023-04-28T06:41:31;9.70;99.90
8537;DHT22;4306;50.210;10.628;2023-04-28T06:43:58;9.70;99.90
8537;DHT22;4306;50.210;10.628;2023-04-28T06:46:25;9.70;99.90
8537;DHT22;4306;50.210;10.628;2023-04-28T06:48:52;9.80;99.90
8537;DHT22;4306;50.210;10.628;2023-04-28T06:51:20;9.80;99.90
8537;DHT22;4306;50.210;10.628;2023-04-28T06:53:47;9.70;99.90
8537;DHT22;4306;50.210;10.628;2023-04-28T06:56:15;9.60;99.90
8537;DHT22;4306;50.210;10.628;2023-04-28T06:58:42;9.60;99.90
8537;DHT22;4306;50.210;10.628;2023-04-28T07:01:09;9.70;99.90
8537;DHT22;4306;50.210;10.628;2023-04-28T07:03:36;9.80;99.90
8537;DHT22;4306;50.210;10.628;2023-04-28T07:06:04;9.90;99.90
8537;DHT22;4306;50.210;10.628;2023-04-28T07:08:33;9.90;99.90
8537;DHT22;4306;50.210;10.628;2023-04-28T07:11:00;10.00;99.90
8537;DHT22;4306;50.210;10.628;2023-04-28T07:13:29;10.10;99.90
8537;DHT22;4306;50.210;10.628;2023-04-28T07:15:56;10.10;99.90
8537;DHT22;4306;50.210;10.628;2023-04-28T07:18:23;9.90;99.90
8537;DHT22;4306;50.210;10.628;2023-04-28T07:20:50;9.90;99.90
8537;DHT22;4306;50.210;10.628;2023-04-28T07:23:17;9.80;99.90
8537;DHT22;4306;50.210;10.628;2023-04-28T07:25:45;9.90;99.90
8537;DHT22;4306;50.210;10.628;2023-04-28T07:28:12;9.90;99.90
8537;DHT22;4306;50.210;10.628;2023-04-28T07:30:39;9.80;99.90
8537;DHT22;4306;50.210;10.628;2023-04-28T07:33:06;9.60;99.90
8537;DHT22;4306;50.210;10.628;2023-04-28T07:35:33;9.50;99.90
8537;DHT22;4306;50.210;10.628;2023-04-28T07:38:01;9.60;99.90
8537;DHT22;4306;50.210;10.628;2023-04-28T07:40:28;9.40;99.90
8537;DHT22;4306;50.210;10.628;2023-04-28T07:42:56;9.50;99.90
8537;DHT22;4306;50.210;10.628;2023-04-28T07:45:23;9.50;99.90
8537;DHT22;4306;50.210;10.628;2023-04-28T07:47:50;9.60;99.90
8537;DHT22;4306;50.210;10.628;2023-04-28T07:50:17;9.70;99.90
8537;DHT22;4306;50.210;10.628;2023-04-28T07:52:44;9.80;99.90
8537;DHT22;4306;50.210;10.628;2023-04-28T07:55:11;9.60;99.90
8537;DHT22;4306;50.210;10.628;2023-04-28T07:57:38;9.70;99.90
8537;DHT22;4306;50.210;10.628;2023-04-28T08:00:09;9.80;99.90
8537;DHT22;4306;50.210;10.628;2023-04-28T08:02:36;9.90;99.90
8537;DHT22;4306;50.210;10.628;2023-04-28T08:05:03;9.90;99.90
8537;DHT22;4306;50.210;10.628;2023-04-28T08:07:31;10.00;99.90
8537;DHT22;4306;50.210;10.628;2023-04-28T08:09:58;10.00;99.90
8537;DHT22;4306;50.210;10.628;2023-04-28T08:12:25;10.10;99.90
8537;DHT22;4306;50.210;10.628;2023-04-28T08:14:52;10.10;99.90
8537;DHT22;4306;50.210;10.628;2023-04-28T08:17:21;10.10;99.90
8537;DHT22;4306;50.210;10.628;2023-04-28T08:19:47;10.20;99.90
8537;DHT22;4306;50.210;10.628;2023-04-28T08:22:15;10.20;99.90
8537;DHT22;4306;50.210;10.628;2023-04-28T08:24:41;10.20;99.90
8537;DHT22;4306;50.210;10.628;2023-04-28T08:27:08;10.20;99.90
8537;DHT22;4306;50.210;10.628;2023-04-28T08:29:35;10.30;99.90
8537;DHT22;4306;50.210;10.628;2023-04-28T08:32:02;10.30;99.90
8537;DHT22;4306;50.210;10.628;2023-04-28T08:34:32;10.40;99.90
8537;DHT22;4306;50.210;10.628;2023-04-28T08:36:59;10.30;99.90
8537;DHT22;4306;50.210;10.628;2023-04-28T08:39:26;10.30;99.90
8537;DHT22;4306;50.210;10.628;2023-04-28T08:41:53;10.30;99.90
8537;DHT22;4306;50.210;10.628;2023-04-28T08:44:20;10.30;99.90
8537;DHT22;4306;50.210;10.628;2023-04-28T08:46:49;10.30;99.90
8537;DHT22;4306;50.210;10.628;2023-04-28T08:49:22;10.30;99.90
8537;DHT22;4306;50.210;10.628;2023-04-28T08:51:55;10.30;99.90
8537;DHT22;4306;50.210;10.628;2023-04-28T08:54:27;10.30;99.90
8537;DHT22;4306;50.210;10.628;2023-04-28T08:56:56;10.40;99.90
8537;DHT22;4306;50.210;10.628;2023-04-28T08:59:23;10.40;99.90
8537;DHT22;4306;50.210;10.628;2023-04-28T09:01:50;10.40;99.90
8537;DHT22;4306;50.210;10.628;2023-04-28T09:04:17;10.40;99.90
8537;DHT22;4306;50.210;10.628;2023-04-28T09:06:45;10.30;99.90
8537;DHT22;4306;50.210;10.628;2023-04-28T09:09:20;10.40;99.90
8537;DHT22;4306;50.210;10.628;2023-04-28T09:11:52;10.30;99.90
8537;DHT22;4306;50.210;10.628;2023-04-28T09:14:20;10.20;99.90
8537;DHT22;4306;50.210;10.628;2023-04-28T09:16:47;10.30;99.90
8537;DHT22;4306;50.210;10.628;2023-04-28T09:19:14;10.40;99.90
8537;DHT22;4306;50.210;10.628;2023-04-28T09:21:49;10.40;99.90
8537;DHT22;4306;50.210;10.628;2023-04-28T09:24:30;10.50;99.90
8537;DHT22;4306;50.210;10.628;2023-04-28T09:26:58;10.70;99.90
8537;DHT22;4306;50.210;10.628;2023-04-28T09:29:27;10.90;99.90
8537;DHT22;4306;50.210;10.628;2023-04-28T09:31:54;11.00;99.90
8537;DHT22;4306;50.210;10.628;2023-04-28T09:34:42;11.10;99.90
8537;DHT22;4306;50.210;10.628;2023-04-28T09:37:14;11.10;99.90
8537;DHT22;4306;50.210;10.628;2023-04-28T09:39:44;10.90;99.90
8537;DHT22;4306;50.210;10.628;2023-04-28T09:42:30;11.00;99.90
8537;DHT22;4306;50.210;10.628;2023-04-28T09:44:58;11.10;99.90
8537;DHT22;4306;50.210;10.628;2023-04-28T09:47:26;11.10;99.90
8537;DHT22;4306;50.210;10.628;2023-04-28T09:49:53;11.10;99.90
8537;DHT22;4306;50.210;10.628;2023-04-28T09:52:21;11.20;99.90
8537;DHT22;4306;50.210;10.628;2023-04-28T09:54:51;11.00;99.90
8537;DHT22;4306;50.210;10.628;2023-04-28T09:57:19;11.20;99.90
8537;DHT22;4306;50.210;10.628;2023-04-28T09:59:48;11.10;99.90
8537;DHT22;4306;50.210;10.628;2023-04-28T10:02:16;11.10;99.90
8537;DHT22;4306;50.210;10.628;2023-04-28T10:04:44;11.00;99.90
8537;DHT22;4306;50.210;10.628;2023-04-28T10:07:11;11.10;99.90
8537;DHT22;4306;50.210;10.628;2023-04-28T10:09:39;11.20;99.90
8537;DHT22;4306;50.210;10.628;2023-04-28T10:12:10;11.20;99.90
8537;DHT22;4306;50.210;10.628;2023-04-28T10:14:37;11.30;99.90
8537;DHT22;4306;50.210;10.628;2023-04-28T10:17:05;11.30;99.90
8537;DHT22;4306;50.210;10.628;2023-04-28T10:19:32;11.30;99.90
8537;DHT22;4306;50.210;10.628;2023-04-28T10:22:12;11.40;99.90
8537;DHT22;4306;50.210;10.628;2023-04-28T10:24:58;11.40;99.90
8537;DHT22;4306;50.210;10.628;2023-04-28T10:27:31;11.50;99.90
8537;DHT22;4306;50.210;10.628;2023-04-28T10:30:09;11.50;99.90
8537;DHT22;4306;50.210;10.628;2023-04-28T10:32:37;11.40;99.90
8537;DHT22;4306;50.210;10.628;2023-04-28T10:38:06;11.70;99.90
8537;DHT22;4306;50.210;10.628;2023-04-28T10:40:35;11.70;99.90
8537;DHT22;4306;50.210;10.628;2023-04-28T10:43:04;11.80;99.90
8537;DHT22;4306;50.210;10.628;2023-04-28T10:46:00;11.80;99.90
8537;DHT22;4306;50.210;10.628;2023-04-28T10:49:02;11.90;99.90
8537;DHT22;4306;50.210;10.628;2023-04-28T10:51:30;12.00;99.90
8537;DHT22;4306;50.210;10.628;2023-04-28T10:54:13;12.10;99.90
8537;DHT22;4306;50.210;10.628;2023-04-28T10:57:20;12.30;99.90
8537;DHT22;4306;50.210;10.628;2023-04-28T10:59:50;12.50;99.90
8537;DHT22;4306;50.210;10.628;2023-04-28T11:02:47;12.60;99.90
8537;DHT22;4306;50.210;10.628;2023-04-28T11:05:15;12.80;99.90
8537;DHT22;4306;50.210;10.628;2023-04-28T11:11:22;12.70;99.90
8537;DHT22;4306;50.210;10.628;2023-04-28T11:13:53;12.80;99.90
8537;DHT22;4306;50.210;10.628;2023-04-28T11:16:22;12.90;99.90
8537;DHT22;4306;50.210;10.628;2023-04-28T11:18:57;12.90;99.90
8537;DHT22;4306;50.210;10.628;2023-04-28T11:21:27;12.90;99.90
8537;DHT22;4306;50.210;10.628;2023-04-28T11:23:54;12.90;99.90
8537;DHT22;4306;50.210;10.628;2023-04-28T11:26:23;13.00;99.90
8537;DHT22;4306;50.210;10.628;2023-04-28T11:28:53;12.90;99.90
8537;DHT22;4306;50.210;10.628;2023-04-28T11:31:21;12.90;99.90
8537;DHT22;4306;50.210;10.628;2023-04-28T11:33:52;12.80;99.90
8537;DHT22;4306;50.210;10.628;2023-04-28T11:36:37;12.90;99.90
8537;DHT22;4306;50.210;10.628;2023-04-28T11:39:07;12.70;99.90
8537;DHT22;4306;50.210;10.628;2023-04-28T11:41:35;12.70;99.90
8537;DHT22;4306;50.210;10.628;2023-04-28T11:44:10;12.60;99.90
8537;DHT22;4306;50.210;10.628;2023-04-28T11:46:44;12.50;99.90
8537;DHT22;4306;50.210;10.628;2023-04-28T11:49:15;12.60;99.90
8537;DHT22;4306;50.210;10.628;2023-04-28T11:51:42;12.70;99.90
8537;DHT22;4306;50.210;10.628;2023-04-28T11:54:11;12.80;99.90
8537;DHT22;4306;50.210;10.628;2023-04-28T11:56:40;12.80;99.90
8537;DHT22;4306;50.210;10.628;2023-04-28T11:59:10;12.90;99.90
8537;DHT22;4306;50.210;10.628;2023-04-28T12:01:48;12.80;99.90
8537;DHT22;4306;50.210;10.628;2023-04-28T12:04:26;13.00;99.90
8537;DHT22;4306;50.210;10.628;2023-04-28T12:07:01;13.00;99.90
8537;DHT22;4306;50.210;10.628;2023-04-28T12:09:28;12.90;99.90
8537;DHT22;4306;50.210;10.628;2023-04-28T12:11:56;13.00;99.90
8537;DHT22;4306;50.210;10.628;2023-04-28T12:14:25;13.10;99.90
8537;DHT22;4306;50.210;10.628;2023-04-28T12:16:52;12.90;99.90
8537;DHT22;4306;50.210;10.628;2023-04-28T12:19:19;13.00;99.90
8537;DHT22;4306;50.210;10.628;2023-04-28T12:22:02;13.00;99.90
8537;DHT22;4306;50.210;10.628;2023-04-28T12:24:29;13.00;99.90
8537;DHT22;4306;50.210;10.628;2023-04-28T12:27:16;13.10;99.90
8537;DHT22;4306;50.210;10.628;2023-04-28T12:29:47;13.10;99.90
8537;DHT22;4306;50.210;10.628;2023-04-28T12:35:22;12.90;99.90
8537;DHT22;4306;50.210;10.628;2023-04-28T12:37:49;13.00;99.90
8537;DHT22;4306;50.210;10.628;2023-04-28T12:40:16;13.00;99.90
8537;DHT22;4306;50.210;10.628;2023-04-28T12:42:44;12.90;99.90
8537;DHT22;4306;50.210;10.628;2023-04-28T12:45:12;13.00;99.90
8537;DHT22;4306;50.210;10.628;2023-04-28T12:47:41;13.00;99.90
8537;DHT22;4306;50.210;10.628;2023-04-28T12:50:08;13.10;99.90
8537;DHT22;4306;50.210;10.628;2023-04-28T12:52:35;13.10;99.90
8537;DHT22;4306;50.210;10.628;2023-04-28T12:55:02;13.10;99.90
8537;DHT22;4306;50.210;10.628;2023-04-28T12:57:29;13.00;99.90
8537;DHT22;4306;50.210;10.628;2023-04-28T12:59:56;13.10;99.90
8537;DHT22;4306;50.210;10.628;2023-04-28T13:02:25;13.00;99.90
8537;DHT22;4306;50.210;10.628;2023-04-28T13:04:52;13.10;99.90
8537;DHT22;4306;50.210;10.628;2023-04-28T13:07:19;13.20;99.90
8537;DHT22;4306;50.210;10.628;2023-04-28T13:09:46;13.20;99.90
8537;DHT22;4306;50.210;10.628;2023-04-28T13:12:13;13.30;99.90
8537;DHT22;4306;50.210;10.628;2023-04-28T13:14:40;13.30;99.90
8537;DHT22;4306;50.210;10.628;2023-04-28T13:17:07;13.30;99.90
8537;DHT22;4306;50.210;10.628;2023-04-28T13:19:36;13.10;99.90
8537;DHT22;4306;50.210;10.628;2023-04-28T13:22:04;13.20;99.90
8537;DHT22;4306;50.210;10.628;2023-04-28T13:24:31;13.20;99.90
8537;DHT22;4306;50.210;10.628;2023-04-28T13:26:59;13.40;99.90
8537;DHT22;4306;50.210;10.628;2023-04-28T13:29:26;13.30;99.90
8537;DHT22;4306;50.210;10.628;2023-04-28T13:31:53;13.30;99.90
8537;DHT22;4306;50.210;10.628;2023-04-28T13:34:20;13.40;99.90
8537;DHT22;4306;50.210;10.628;2023-04-28T13:36:49;13.50;99.90
8537;DHT22;4306;50.210;10.628;2023-04-28T13:39:15;13.60;99.90
8537;DHT22;4306;50.210;10.628;2023-04-28T13:41:44;13.60;99.90
8537;DHT22;4306;50.210;10.628;2023-04-28T13:44:11;13.60;99.90
8537;DHT22;4306;50.210;10.628;2023-04-28T13:46:38;13.60;99.90
8537;DHT22;4306;50.210;10.628;2023-04-28T13:49:05;13.60;99.90
8537;DHT22;4306;50.210;10.628;2023-04-28T13:51:32;13.60;99.90
8537;DHT22;4306;50.210;10.628;2023-04-28T13:54:00;13.60;99.90
8537;DHT22;4306;50.210;10.628;2023-04-28T13:56:29;13.60;99.90
8537;DHT22;4306;50.210;10.628;2023-04-28T13:58:56;13.60;99.90
8537;DHT22;4306;50.210;10.628;2023-04-28T14:01:23;13.60;99.90
8537;DHT22;4306;50.210;10.628;2023-04-28T14:03:50;13.60;99.90
8537;DHT22;4306;50.210;10.628;2023-04-28T14:06:17;13.60;99.90
8537;DHT22;4306;50.210;10.628;2023-04-28T14:08:44;13.70;99.90
8537;DHT22;4306;50.210;10.628;2023-04-28T14:11:12;13.70;99.90
8537;DHT22;4306;50.210;10.628;2023-04-28T14:13:39;13.70;99.90
8537;DHT22;4306;50.210;10.628;2023-04-28T14:16:07;13.80;99.90
8537;DHT22;4306;50.210;10.628;2023-04-28T14:18:34;13.90;99.90
8537;DHT22;4306;50.210;10.628;2023-04-28T14:21:01;14.00;99.90
8537;DHT22;4306;50.210;10.628;2023-04-28T14:23:32;14.00;99.90
8537;DHT22;4306;50.210;10.628;2023-04-28T14:25:59;14.00;99.90
8537;DHT22;4306;50.210;10.628;2023-04-28T14:28:28;14.10;99.90
8537;DHT22;4306;50.210;10.628;2023-04-28T14:30:55;14.10;99.90
8537;DHT22;4306;50.210;10.628;2023-04-28T14:33:22;14.20;99.90
8537;DHT22;4306;50.210;10.628;2023-04-28T14:35:50;14.20;99.90
8537;DHT22;4306;50.210;10.628;2023-04-28T14:38:17;14.20;99.90
8537;DHT22;4306;50.210;10.628;2023-04-28T14:40:43;14.20;99.90
8537;DHT22;4306;50.210;10.628;2023-04-28T14:43:11;14.20;99.90
8537;DHT22;4306;50.210;10.628;2023-04-28T14:45:39;14.10;99.90
8537;DHT22;4306;50.210;10.628;2023-04-28T14:48:06;14.20;99.90
8537;DHT22;4306;50.210;10.628;2023-04-28T14:50:35;14.10;99.90
8537;DHT22;4306;50.210;10.628;2023-04-28T14:53:02;14.10;99.90
8537;DHT22;4306;50.210;10.628;2023-04-28T14:55:31;14.00;99.90
8537;DHT22;4306;50.210;10.628;2023-04-28T14:57:58;14.00;99.90
8537;DHT22;4306;50.210;10.628;2023-04-28T15:00:26;13.90;99.90
8537;DHT22;4306;50.210;10.628;2023-04-28T15:02:54;13.90;99.90
8537;DHT22;4306;50.210;10.628;2023-04-28T15:05:22;13.80;99.90
8537;DHT22;4306;50.210;10.628;2023-04-28T15:07:49;14.00;99.90
8537;DHT22;4306;50.210;10.628;2023-04-28T15:10:16;13.90;99.90
8537;DHT22;4306;50.210;10.628;2023-04-28T15:12:43;13.90;99.90
8537;DHT22;4306;50.210;10.628;2023-04-28T15:15:10;13.90;99.90
8537;DHT22;4306;50.210;10.628;2023-04-28T15:17:37;13.90;99.90
8537;DHT22;4306;50.210;10.628;2023-04-28T15:20:07;13.90;99.90
8537;DHT22;4306;50.210;10.628;2023-04-28T15:22:34;13.90;99.90
8537;DHT22;4306;50.210;10.628;2023-04-28T15:25:02;13.90;99.90
8537;DHT22;4306;50.210;10.628;2023-04-28T15:27:29;14.00;99.90
8537;DHT22;4306;50.210;10.628;2023-04-28T15:29:56;14.00;99.90
8537;DHT22;4306;50.210;10.628;2023-04-28T15:32:23;14.00;99.90
8537;DHT22;4306;50.210;10.628;2023-04-28T15:34:50;14.00;99.90
8537;DHT22;4306;50.210;10.628;2023-04-28T15:37:40;14.10;99.90
8537;DHT22;4306;50.210;10.628;2023-04-28T15:40:09;14.10;99.90
8537;DHT22;4306;50.210;10.628;2023-04-28T15:42:36;14.10;99.90
8537;DHT22;4306;50.210;10.628;2023-04-28T15:45:04;14.10;99.90
8537;DHT22;4306;50.210;10.628;2023-04-28T15:47:31;14.20;99.90
8537;DHT22;4306;50.210;10.628;2023-04-28T15:49:58;14.20;99.90
8537;DHT22;4306;50.210;10.628;2023-04-28T15:52:25;14.20;99.90
8537;DHT22;4306;50.210;10.628;2023-04-28T15:54:53;14.30;99.90
8537;DHT22;4306;50.210;10.628;2023-04-28T15:57:21;14.30;99.90
8537;DHT22;4306;50.210;10.628;2023-04-28T15:59:48;14.30;99.90
8537;DHT22;4306;50.210;10.628;2023-04-28T16:02:16;14.40;99.90
8537;DHT22;4306;50.210;10.628;2023-04-28T16:04:43;14.50;99.90
8537;DHT22;4306;50.210;10.628;2023-04-28T16:07:10;14.60;99.90
8537;DHT22;4306;50.210;10.628;2023-04-28T16:09:36;14.60;99.90
8537;DHT22;4306;50.210;10.628;2023-04-28T16:12:05;14.70;99.90